Time;durP1;ratioP1;P1;durP2;ratioP2;P2;SDS_P1;SDS_P2;PMS_P1;PMS_P2;Temp;Humidity;BMP_temperature;BMP_pressure;BME280_temperature;BME280_humidity;BME280_pressure;Samples;Min_cycle;Max_cycle;Signal;HPM_P1;HPM_P2
2023/03/04 00:02:23;;;;;;;12.73;2.05;;;5.90;99.90;;;;;;5051387;28;20480;-68
2023/03/04 00:04:49;;;;;;;13.52;2.00;;;5.90;99.90;;;;;;5051068;28;20047;-68
2023/03/04 00:07:17;;;;;;;11.73;2.03;;;5.90;99.90;;;;;;5050685;28;20049;-69
2023/03/04 00:09:44;;;;;;;13.90;1.77;;;5.90;99.90;;;;;;5050550;28;20049;-69
2023/03/04 00:12:10;;;;;;;14.45;1.60;;;5.90;99.90;;;;;;5050351;28;20060;-68
2023/03/04 00:14:35;;;;;;;12.88;2.17;;;5.90;99.90;;;;;;5049236;28;20059;-69
2023/03/04 00:17:03;;;;;;;11.23;2.50;;;5.90;99.90;;;;;;5051941;28;20041;-68
2023/03/04 00:19:29;;;;;;;12.88;1.80;;;5.90;99.90;;;;;;5053349;28;20040;-69
2023/03/04 00:21:55;;;;;;;14.10;2.13;;;5.90;99.90;;;;;;5048612;28;20049;-69
2023/03/04 00:24:20;;;;;;;14.80;2.20;;;5.90;99.90;;;;;;5050225;28;20048;-69
2023/03/04 00:26:46;;;;;;;12.70;2.22;;;5.90;99.90;;;;;;5050413;28;20044;-68
2023/03/04 00:29:12;;;;;;;14.30;2.10;;;5.90;99.90;;;;;;5050206;28;20127;-68
2023/03/04 00:31:37;;;;;;;13.52;2.20;;;5.90;99.90;;;;;;5050084;28;20097;-69
2023/03/04 00:34:03;;;;;;;16.73;2.13;;;5.90;99.90;;;;;;5050468;28;20052;-67
2023/03/04 00:36:29;;;;;;;14.57;2.08;;;5.80;99.90;;;;;;5083302;28;20556;-68
2023/03/04 00:38:54;;;;;;;15.77;2.25;;;5.80;99.90;;;;;;5033401;28;20045;-69
2023/03/04 00:41:20;;;;;;;20.45;2.83;;;5.80;99.90;;;;;;5050094;28;20099;-69
2023/03/04 00:43:46;;;;;;;16.48;2.33;;;5.80;99.90;;;;;;5050090;28;20154;-69
2023/03/04 00:46:11;;;;;;;16.27;1.98;;;5.80;99.90;;;;;;5050094;28;20041;-69
2023/03/04 00:48:37;;;;;;;12.90;1.80;;;5.80;99.90;;;;;;5082936;28;20045;-67
2023/03/04 00:51:03;;;;;;;14.73;2.17;;;5.80;99.90;;;;;;5049921;28;20385;-67
2023/03/04 00:53:29;;;;;;;15.32;2.30;;;5.80;99.90;;;;;;5050565;28;20056;-69
2023/03/04 00:55:54;;;;;;;15.55;2.20;;;5.80;99.90;;;;;;5050494;28;20045;-70
2023/03/04 00:58:20;;;;;;;15.02;2.58;;;5.80;99.90;;;;;;5050933;28;20114;-69
2023/03/04 01:00:46;;;;;;;12.00;1.80;;;5.80;99.90;;;;;;5050888;28;20388;-68
2023/03/04 01:03:14;;;;;;;17.80;1.90;;;5.80;99.90;;;;;;5050813;28;20546;-70
2023/03/04 01:05:40;;;;;;;16.02;2.72;;;5.90;99.90;;;;;;5049777;28;20037;-69
2023/03/04 01:08:06;;;;;;;19.65;2.55;;;5.90;99.90;;;;;;5031257;28;20044;-68
2023/03/04 01:10:31;;;;;;;16.17;3.40;;;5.90;99.90;;;;;;5048269;28;20107;-68
2023/03/04 01:12:57;;;;;;;16.05;2.03;;;5.90;99.90;;;;;;5049449;28;20087;-68
2023/03/04 01:15:23;;;;;;;13.77;2.35;;;5.90;99.90;;;;;;5049393;28;20182;-67
2023/03/04 01:17:49;;;;;;;14.38;2.03;;;5.80;99.90;;;;;;5049254;28;20041;-68
2023/03/04 01:20:15;;;;;;;18.17;2.40;;;5.80;99.90;;;;;;5049695;28;20033;-69
2023/03/04 01:22:41;;;;;;;18.13;2.00;;;5.80;99.90;;;;;;5047690;28;20048;-67
2023/03/04 01:25:07;;;;;;;14.27;2.10;;;5.80;99.90;;;;;;5032627;28;20041;-69
2023/03/04 01:27:33;;;;;;;15.60;1.83;;;5.80;99.90;;;;;;5063912;28;20046;-68
2023/03/04 01:29:59;;;;;;;18.60;2.47;;;5.90;99.90;;;;;;5049157;28;20047;-68
2023/03/04 01:32:25;;;;;;;14.25;2.05;;;5.80;99.90;;;;;;5047358;28;20052;-69
2023/03/04 01:34:50;;;;;;;18.40;2.42;;;5.80;99.90;;;;;;5048920;28;20106;-69
2023/03/04 01:37:16;;;;;;;13.20;1.85;;;5.80;99.90;;;;;;5049500;28;20124;-68
2023/03/04 01:39:42;;;;;;;24.15;2.00;;;5.80;99.90;;;;;;5048992;28;20037;-68
2023/03/04 01:42:20;;;;;;;6.30;1.70;;;5.80;99.90;;;;;;5048051;28;20120;-68
2023/03/04 01:44:46;;;;;;;12.48;2.00;;;5.80;99.90;;;;;;5049761;28;20064;-67
2023/03/04 01:47:13;;;;;;;13.35;1.90;;;5.80;99.90;;;;;;5049078;28;20989;-67
2023/03/04 01:49:39;;;;;;;14.90;2.10;;;5.80;99.90;;;;;;5048880;28;20040;-67
2023/03/04 01:52:09;;;;;;;19.40;3.30;;;5.80;99.90;;;;;;5048797;28;20049;-68
2023/03/04 01:54:34;;;;;;;11.93;1.50;;;5.80;99.90;;;;;;5049123;28;20484;-68
2023/03/04 01:57:00;;;;;;;16.15;3.00;;;5.80;99.90;;;;;;5048802;28;20045;-68
2023/03/04 01:59:30;;;;;;;11.38;2.13;;;5.80;99.90;;;;;;5049110;28;20037;-68
2023/03/04 02:01:58;;;;;;;15.60;1.88;;;5.80;99.90;;;;;;5048477;28;20040;-67
2023/03/04 02:04:31;;;;;;;11.82;1.75;;;5.80;99.90;;;;;;5048884;28;20037;-68
2023/03/04 02:06:58;;;;;;;13.80;1.83;;;5.80;99.90;;;;;;5048551;28;20044;-67
2023/03/04 02:09:24;;;;;;;13.07;1.60;;;5.80;99.90;;;;;;5032270;28;20041;-68
2023/03/04 02:11:50;;;;;;;14.95;1.77;;;5.80;99.90;;;;;;5048678;28;20033;-68
2023/03/04 02:14:17;;;;;;;14.45;1.80;;;5.80;99.90;;;;;;5048669;28;20064;-68
2023/03/04 02:16:43;;;;;;;11.15;1.65;;;5.70;99.90;;;;;;5049025;28;20044;-68
2023/03/04 02:19:45;;;;;;;10.77;1.60;;;5.70;99.90;;;;;;5052620;28;20044;-68
2023/03/04 02:22:10;;;;;;;8.90;1.52;;;5.70;99.90;;;;;;5052420;28;20068;-67
2023/03/04 02:24:47;;;;;;;10.82;1.95;;;5.70;99.90;;;;;;5035865;28;20087;-67
2023/03/04 02:27:13;;;;;;;11.60;1.77;;;5.70;99.90;;;;;;5052368;28;20037;-67
2023/03/04 02:29:39;;;;;;;7.60;1.35;;;5.70;99.90;;;;;;5052839;28;20496;-68
2023/03/04 02:32:05;;;;;;;13.13;1.63;;;5.70;99.90;;;;;;5038478;28;20048;-68
2023/03/04 02:34:34;;;;;;;16.23;1.95;;;5.70;99.90;;;;;;5050286;28;20122;-68
2023/03/04 02:37:01;;;;;;;14.68;1.75;;;5.70;99.90;;;;;;5056240;28;20052;-67
2023/03/04 02:39:33;;;;;;;10.05;1.38;;;5.70;99.90;;;;;;5054864;28;20124;-68
2023/03/04 02:42:00;;;;;;;;;;;5.70;99.90;;;;;;5039309;28;20124;-67
2023/03/04 02:44:33;;;;;;;17.83;1.98;;;5.70;99.90;;;;;;5053207;28;19931;-68
2023/03/04 02:47:00;;;;;;;11.20;1.75;;;5.70;99.90;;;;;;5050525;28;20041;-68
2023/03/04 02:49:28;;;;;;;14.30;1.80;;;5.70;99.90;;;;;;5068612;28;20120;-67
2023/03/04 02:52:25;;;;;;;12.07;1.95;;;5.70;99.90;;;;;;5034239;28;20082;-68
2023/03/04 02:54:50;;;;;;;8.73;1.27;;;5.70;99.90;;;;;;5030560;28;20057;-68
2023/03/04 02:57:16;;;;;;;8.25;1.40;;;5.70;99.90;;;;;;5033417;28;20045;-68
2023/03/04 02:59:42;;;;;;;11.43;1.70;;;5.70;99.90;;;;;;5044862;28;20052;-67
2023/03/04 03:02:07;;;;;;;8.82;1.73;;;5.70;99.90;;;;;;5036335;28;20044;-68
2023/03/04 03:04:35;;;;;;;13.73;2.13;;;5.70;99.90;;;;;;5036652;28;20112;-68
2023/03/04 03:07:01;;;;;;;10.70;1.90;;;5.60;99.90;;;;;;5038206;28;20047;-68
2023/03/04 03:09:26;;;;;;;8.82;1.45;;;5.60;99.90;;;;;;5036152;28;20029;-68
2023/03/04 03:11:52;;;;;;;10.13;1.35;;;5.70;99.90;;;;;;5034084;28;20052;-68
2023/03/04 03:14:18;;;;;;;9.15;1.67;;;5.60;99.90;;;;;;5048836;28;20048;-67
2023/03/04 03:16:43;;;;;;;8.40;1.50;;;5.60;99.90;;;;;;5033793;28;20032;-68
2023/03/04 03:19:09;;;;;;;9.85;1.30;;;5.60;99.90;;;;;;5036021;28;20409;-69
2023/03/04 03:21:34;;;;;;;8.45;1.38;;;5.60;99.90;;;;;;5030914;28;20399;-68
2023/03/04 03:24:00;;;;;;;11.90;1.70;;;5.60;99.90;;;;;;5051852;28;20430;-67
2023/03/04 03:26:26;;;;;;;8.57;1.60;;;5.60;99.90;;;;;;5033848;28;20033;-67
2023/03/04 03:28:51;;;;;;;11.30;1.40;;;5.60;99.90;;;;;;5036725;28;20055;-67
2023/03/04 03:31:18;;;;;;;8.07;1.40;;;5.60;99.90;;;;;;5043775;28;20068;-67
2023/03/04 03:33:44;;;;;;;14.32;1.75;;;5.60;99.90;;;;;;5052090;28;20076;-68
2023/03/04 03:36:10;;;;;;;8.13;1.45;;;5.60;99.90;;;;;;5050338;28;20565;-68
2023/03/04 03:38:35;;;;;;;14.35;2.03;;;5.60;99.90;;;;;;5049066;28;20099;-68
2023/03/04 03:41:01;;;;;;;13.25;2.08;;;5.60;99.90;;;;;;5051117;28;20037;-67
2023/03/04 03:43:27;;;;;;;11.98;1.90;;;5.60;99.90;;;;;;5053597;28;20414;-68
2023/03/04 03:45:52;;;;;;;10.90;1.35;;;5.60;99.90;;;;;;5053168;28;20182;-68
2023/03/04 03:48:18;;;;;;;8.63;1.60;;;5.60;99.90;;;;;;5057071;28;20055;-67
2023/03/04 03:50:44;;;;;;;11.00;1.40;;;5.60;99.90;;;;;;5050584;28;20056;-68
2023/03/04 03:53:10;;;;;;;9.88;1.80;;;5.60;99.90;;;;;;5052064;28;20040;-67
2023/03/04 03:55:36;;;;;;;10.90;1.75;;;5.50;99.90;;;;;;5051939;28;20045;-68
2023/03/04 03:58:01;;;;;;;11.02;2.05;;;5.60;99.90;;;;;;5049379;28;20037;-68
2023/03/04 04:00:27;;;;;;;9.93;1.40;;;5.60;99.90;;;;;;5050805;28;20039;-67
2023/03/04 04:02:55;;;;;;;10.02;1.20;;;5.60;99.90;;;;;;5051120;28;20043;-67
2023/03/04 04:05:21;;;;;;;13.35;1.77;;;5.50;99.90;;;;;;5050684;28;20051;-69
2023/03/04 04:07:46;;;;;;;6.57;1.23;;;5.60;99.90;;;;;;5050544;28;20492;-67
2023/03/04 04:10:12;;;;;;;11.70;1.77;;;5.60;99.90;;;;;;5034462;28;20787;-68
2023/03/04 04:12:38;;;;;;;15.43;1.70;;;5.50;99.90;;;;;;5050443;28;20095;-67
2023/03/04 04:15:04;;;;;;;11.10;1.70;;;5.50;99.90;;;;;;5050655;28;20040;-68
2023/03/04 04:17:29;;;;;;;12.73;2.08;;;5.50;99.90;;;;;;5036308;28;20476;-67
2023/03/04 04:19:55;;;;;;;9.68;1.38;;;5.50;99.90;;;;;;5050425;28;20120;-68
2023/03/04 04:22:21;;;;;;;11.10;1.30;;;5.50;99.90;;;;;;5034317;28;20082;-69
2023/03/04 04:24:47;;;;;;;11.45;1.70;;;5.50;99.90;;;;;;5033869;28;20093;-67
2023/03/04 04:27:13;;;;;;;9.02;1.73;;;5.50;99.90;;;;;;5050278;28;20048;-68
2023/03/04 04:29:39;;;;;;;11.52;1.60;;;5.50;99.90;;;;;;5050033;28;20045;-67
2023/03/04 04:32:05;;;;;;;9.82;1.42;;;5.50;99.90;;;;;;5049086;28;20037;-68
2023/03/04 04:34:31;;;;;;;15.05;1.83;;;5.50;99.90;;;;;;5049970;28;20055;-68
2023/03/04 04:36:57;;;;;;;11.55;1.70;;;5.50;99.90;;;;;;5050009;28;20039;-68
2023/03/04 04:39:22;;;;;;;13.68;1.55;;;5.50;99.90;;;;;;5050322;28;20033;-67
2023/03/04 04:41:48;;;;;;;10.45;1.48;;;5.50;99.90;;;;;;5032858;28;20476;-67
2023/03/04 04:44:14;;;;;;;8.68;1.45;;;5.50;99.90;;;;;;5050604;28;20687;-68
2023/03/04 04:46:40;;;;;;;10.30;1.40;;;5.50;99.90;;;;;;5050246;28;20388;-67
2023/03/04 04:49:06;;;;;;;8.98;1.40;;;5.50;99.90;;;;;;5050169;28;20087;-68
2023/03/04 04:51:33;;;;;;;12.18;1.70;;;5.50;99.90;;;;;;5053829;28;20045;-68
2023/03/04 04:54:00;;;;;;;14.02;2.50;;;5.50;99.90;;;;;;5033066;28;20392;-68
2023/03/04 04:56:26;;;;;;;16.55;2.15;;;5.50;99.90;;;;;;5050218;28;20446;-67
2023/03/04 04:58:57;;;;;;;8.68;1.70;;;5.50;99.90;;;;;;5048902;28;20041;-68
2023/03/04 05:01:24;;;;;;;13.23;1.63;;;5.50;99.90;;;;;;5048431;28;20029;-67
2023/03/04 05:03:52;;;;;;;9.35;1.70;;;5.40;99.90;;;;;;5048024;28;20044;-66
2023/03/04 05:06:18;;;;;;;6.25;1.17;;;5.50;99.90;;;;;;5049813;28;20041;-67
2023/03/04 05:08:44;;;;;;;9.43;1.60;;;5.50;99.90;;;;;;5033545;28;20385;-69
2023/03/04 05:11:10;;;;;;;12.13;1.80;;;5.50;99.90;;;;;;5049741;28;20051;-68
2023/03/04 05:13:35;;;;;;;10.40;1.45;;;5.50;99.90;;;;;;5049645;28;20068;-67
2023/03/04 05:16:01;;;;;;;12.95;1.30;;;5.50;99.90;;;;;;5049637;28;20480;-68
2023/03/04 05:18:27;;;;;;;12.48;1.33;;;5.50;99.90;;;;;;5033124;28;20159;-67
2023/03/04 05:20:59;;;;;;;7.82;1.70;;;5.50;99.90;;;;;;5049670;28;20041;-67
2023/03/04 05:23:25;;;;;;;10.68;1.40;;;5.50;99.90;;;;;;5049866;28;20037;-69
2023/03/04 05:25:51;;;;;;;10.40;1.60;;;5.50;99.90;;;;;;5082765;28;20064;-68
2023/03/04 05:28:17;;;;;;;10.30;1.45;;;5.50;99.90;;;;;;5049642;28;20040;-69
2023/03/04 05:30:43;;;;;;;7.50;1.20;;;5.40;99.90;;;;;;5049698;28;20044;-68
2023/03/04 05:33:11;;;;;;;8.10;1.13;;;5.40;99.90;;;;;;5049078;28;20049;-68
2023/03/04 05:35:38;;;;;;;5.15;1.00;;;5.40;99.90;;;;;;5049371;28;20116;-68
2023/03/04 05:38:05;;;;;;;8.32;1.70;;;5.40;99.90;;;;;;5049034;28;20051;-68
2023/03/04 05:40:31;;;;;;;8.20;1.48;;;5.40;99.90;;;;;;5049929;28;20539;-67
2023/03/04 05:42:57;;;;;;;6.85;1.30;;;5.40;99.90;;;;;;5082766;28;20052;-67
2023/03/04 05:45:24;;;;;;;7.80;1.50;;;5.40;99.90;;;;;;5049571;28;20040;-67
2023/03/04 05:47:50;;;;;;;10.82;1.70;;;5.40;99.90;;;;;;5049058;28;20051;-67
2023/03/04 05:50:16;;;;;;;6.07;1.20;;;5.40;99.90;;;;;;5049199;28;20029;-68
2023/03/04 05:52:41;;;;;;;10.68;1.25;;;5.40;99.90;;;;;;5031992;28;20057;-67
2023/03/04 05:55:07;;;;;;;7.88;1.35;;;5.30;99.90;;;;;;5048965;28;20045;-68
2023/03/04 05:57:33;;;;;;;6.15;1.15;;;5.30;99.90;;;;;;5049627;28;20033;-68
2023/03/04 05:59:59;;;;;;;10.20;1.50;;;5.30;99.90;;;;;;5049070;28;20067;-67
2023/03/04 06:02:24;;;;;;;6.72;1.20;;;5.30;99.90;;;;;;5049074;28;20403;-67
2023/03/04 06:04:50;;;;;;;6.88;1.15;;;5.30;99.90;;;;;;5049131;28;20068;-67
2023/03/04 06:07:16;;;;;;;10.05;1.38;;;5.30;99.90;;;;;;5048653;28;20083;-68
2023/03/04 06:09:44;;;;;;;7.80;2.30;;;5.30;99.90;;;;;;5049392;28;20043;-68
2023/03/04 06:12:10;;;;;;;5.05;1.50;;;5.20;99.90;;;;;;5049242;28;20408;-67
2023/03/04 06:14:36;;;;;;;6.07;1.35;;;5.20;99.90;;;;;;5052188;28;20044;-68
2023/03/04 06:17:01;;;;;;;8.40;1.45;;;5.20;99.90;;;;;;5047700;28;20037;-67
2023/03/04 06:19:27;;;;;;;7.88;1.50;;;5.10;99.90;;;;;;5047803;28;20037;-67
2023/03/04 06:21:52;;;;;;;10.27;1.50;;;5.10;99.90;;;;;;5048777;28;20053;-68
2023/03/04 06:24:18;;;;;;;5.90;1.08;;;5.00;99.90;;;;;;5048426;28;20400;-66
2023/03/04 06:26:44;;;;;;;4.90;1.05;;;5.00;99.90;;;;;;5048406;28;20487;-68
2023/03/04 06:29:09;;;;;;;5.93;1.10;;;5.00;99.90;;;;;;5048780;28;20049;-67
2023/03/04 06:31:35;;;;;;;6.70;1.17;;;5.10;99.90;;;;;;5050476;28;20060;-66
2023/03/04 06:34:01;;;;;;;8.57;1.40;;;5.00;99.90;;;;;;5049149;28;20080;-68
2023/03/04 06:36:26;;;;;;;4.65;1.13;;;5.10;99.90;;;;;;5049081;28;20072;-67
2023/03/04 06:38:52;;;;;;;7.90;1.20;;;5.10;99.90;;;;;;5048642;28;20052;-66
2023/03/04 06:41:18;;;;;;;5.07;1.50;;;5.10;99.90;;;;;;5048633;28;20500;-68
2023/03/04 06:43:44;;;;;;;7.88;1.13;;;5.10;99.90;;;;;;5048579;28;20369;-67
2023/03/04 06:46:09;;;;;;;7.70;1.42;;;5.10;99.90;;;;;;5048462;28;20037;-66
2023/03/04 06:48:35;;;;;;;11.55;1.35;;;5.10;99.90;;;;;;5048381;28;20440;-67
2023/03/04 06:51:09;;;;;;;4.80;1.20;;;5.10;99.90;;;;;;5047711;28;20065;-67
2023/03/04 06:53:36;;;;;;;7.00;1.30;;;5.10;99.90;;;;;;5032449;28;20518;-67
2023/03/04 06:56:01;;;;;;;3.85;1.17;;;5.10;99.90;;;;;;5028602;28;20056;-68
2023/03/04 06:58:27;;;;;;;5.22;1.30;;;5.10;99.90;;;;;;5030435;28;20037;-69
2023/03/04 07:00:53;;;;;;;6.13;1.20;;;5.20;99.90;;;;;;5048254;28;20114;-68
2023/03/04 07:03:20;;;;;;;7.80;1.35;;;5.20;99.90;;;;;;5030287;28;20049;-68
2023/03/04 07:05:45;;;;;;;8.05;1.20;;;5.20;99.90;;;;;;5053415;28;20043;-68
2023/03/04 07:08:11;;;;;;;10.18;1.70;;;5.20;99.90;;;;;;5051972;28;20141;-68
2023/03/04 07:10:37;;;;;;;8.23;1.52;;;5.20;99.90;;;;;;5049754;28;20124;-68
2023/03/04 07:13:02;;;;;;;5.38;1.40;;;5.20;99.90;;;;;;5051919;28;20037;-67
2023/03/04 07:15:28;;;;;;;10.77;1.60;;;5.30;99.90;;;;;;5051772;28;20044;-67
2023/03/04 07:17:54;;;;;;;5.10;0.98;;;5.30;99.90;;;;;;5050738;28;20071;-67
2023/03/04 07:20:20;;;;;;;7.07;1.30;;;5.30;99.90;;;;;;5051294;28;20083;-67
2023/03/04 07:22:46;;;;;;;5.43;1.20;;;5.30;99.90;;;;;;5052160;28;20509;-67
2023/03/04 07:25:12;;;;;;;3.83;1.00;;;5.40;99.90;;;;;;5051720;28;20045;-66
2023/03/04 07:27:39;;;;;;;6.03;1.00;;;5.40;99.90;;;;;;5051727;28;20044;-68
2023/03/04 07:30:06;;;;;;;5.30;1.23;;;5.50;99.90;;;;;;5053178;28;20083;-68
2023/03/04 07:32:34;;;;;;;5.90;1.98;;;5.60;99.90;;;;;;5049676;28;20086;-69
2023/03/04 07:35:00;;;;;;;7.38;1.10;;;5.60;99.90;;;;;;5052963;28;20045;-68
2023/03/04 07:37:26;;;;;;;4.97;1.02;;;5.70;99.90;;;;;;5051141;28;20044;-70
2023/03/04 07:39:51;;;;;;;4.78;1.20;;;5.70;99.90;;;;;;5050299;28;20051;-69
2023/03/04 07:42:17;;;;;;;5.18;1.02;;;5.80;99.90;;;;;;5051579;28;20082;-69
2023/03/04 07:44:43;;;;;;;9.07;1.45;;;5.90;99.90;;;;;;5051350;28;20052;-69
2023/03/04 07:47:08;;;;;;;6.15;1.35;;;5.90;99.90;;;;;;5041626;28;20036;-69
2023/03/04 07:49:34;;;;;;;5.13;1.10;;;5.90;99.90;;;;;;5080733;28;20041;-67
2023/03/04 07:52:03;;;;;;;4.43;1.38;;;5.90;99.90;;;;;;5049882;28;20049;-69
2023/03/04 07:54:28;;;;;;;6.00;1.23;;;6.00;99.90;;;;;;5047642;28;20551;-69
2023/03/04 07:56:54;;;;;;;7.82;1.20;;;6.00;99.90;;;;;;5050300;28;20065;-69
2023/03/04 07:59:20;;;;;;;6.40;1.50;;;6.00;99.90;;;;;;5047973;28;20041;-69
2023/03/04 08:01:45;;;;;;;5.93;1.30;;;6.00;99.90;;;;;;5047795;28;20036;-68
2023/03/04 08:04:11;;;;;;;4.30;1.00;;;6.10;99.90;;;;;;5048041;28;20037;-69
2023/03/04 08:06:40;;;;;;;7.85;1.20;;;6.10;99.90;;;;;;5050195;28;20120;-68
2023/03/04 08:09:07;;;;;;;6.53;1.42;;;6.10;99.90;;;;;;5049671;28;20044;-69
2023/03/04 08:11:34;;;;;;;6.85;1.65;;;6.10;99.90;;;;;;5034171;28;20049;-69
2023/03/04 08:14:00;;;;;;;4.43;0.90;;;6.10;99.90;;;;;;5048323;28;20041;-68
2023/03/04 08:16:26;;;;;;;9.63;1.60;;;6.10;99.90;;;;;;5049905;28;20049;-69
2023/03/04 08:18:55;;;;;;;8.43;2.67;;;6.10;99.90;;;;;;5049444;28;20037;-67
2023/03/04 08:21:22;;;;;;;7.00;1.40;;;6.10;99.90;;;;;;5050282;28;20408;-68
2023/03/04 08:23:49;;;;;;;6.70;1.10;;;6.10;99.90;;;;;;5049408;28;20091;-68
2023/03/04 08:26:22;;;;;;;6.03;1.80;;;6.10;99.90;;;;;;5051791;28;20076;-69
2023/03/04 08:28:48;;;;;;;5.38;1.02;;;6.10;99.90;;;;;;5051195;28;20049;-68
2023/03/04 08:31:15;;;;;;;4.20;0.70;;;6.10;99.90;;;;;;5034683;28;20047;-69
2023/03/04 08:33:41;;;;;;;3.80;1.20;;;6.20;99.90;;;;;;5033904;28;20057;-69
2023/03/04 08:36:07;;;;;;;3.55;0.70;;;6.20;99.90;;;;;;5050428;28;20043;-68
2023/03/04 08:38:33;;;;;;;4.03;0.73;;;6.10;99.90;;;;;;5033594;28;20127;-68
2023/03/04 08:40:59;;;;;;;6.38;1.75;;;6.20;99.90;;;;;;5042014;28;20504;-67
2023/03/04 08:43:26;;;;;;;2.78;1.20;;;6.20;99.90;;;;;;5049899;28;20555;-68
2023/03/04 08:45:53;;;;;;;3.33;1.05;;;6.30;99.90;;;;;;5047418;28;20044;-69
2023/03/04 08:48:19;;;;;;;5.38;1.17;;;6.30;99.90;;;;;;5048656;28;20064;-69
2023/03/04 08:50:46;;;;;;;7.38;1.58;;;6.40;99.90;;;;;;5049264;28;20033;-69
2023/03/04 08:53:12;;;;;;;6.10;1.92;;;6.40;99.90;;;;;;5049378;28;20067;-68
2023/03/04 08:55:39;;;;;;;5.13;1.20;;;6.40;99.90;;;;;;5047034;28;20377;-68
2023/03/04 08:58:05;;;;;;;7.85;1.50;;;6.40;99.90;;;;;;5077970;28;20041;-67
2023/03/04 09:00:32;;;;;;;7.15;1.23;;;6.40;99.90;;;;;;5034681;28;20384;-68
2023/03/04 09:02:58;;;;;;;6.47;1.23;;;6.50;99.90;;;;;;5046516;28;20037;-69
2023/03/04 09:05:23;;;;;;;5.90;1.20;;;6.50;99.90;;;;;;5049342;28;20499;-68
2023/03/04 09:07:49;;;;;;;8.00;1.20;;;6.60;99.90;;;;;;5049057;28;20029;-68
2023/03/04 09:10:15;;;;;;;7.43;1.52;;;6.70;99.90;;;;;;5049321;28;20044;-68
2023/03/04 09:12:41;;;;;;;7.70;1.60;;;6.80;99.90;;;;;;5047128;28;20049;-67
2023/03/04 09:15:07;;;;;;;7.43;1.55;;;6.80;99.90;;;;;;5047110;28;20037;-70
2023/03/04 09:17:32;;;;;;;9.95;2.17;;;6.80;99.90;;;;;;5046212;28;21541;-68
2023/03/04 09:19:58;;;;;;;11.25;1.95;;;6.80;99.90;;;;;;5048541;28;20123;-69
2023/03/04 09:22:24;;;;;;;12.70;1.52;;;6.80;99.90;;;;;;5047302;28;20040;-68
2023/03/04 09:24:49;;;;;;;14.20;2.28;;;6.70;99.90;;;;;;5059821;28;20087;-67
2023/03/04 09:27:15;;;;;;;11.45;1.63;;;6.80;99.90;;;;;;5041441;28;20045;-68
2023/03/04 09:29:42;;;;;;;13.18;1.50;;;6.70;99.90;;;;;;5044521;28;20140;-67
2023/03/04 09:32:07;;;;;;;13.30;2.08;;;6.80;99.90;;;;;;5046572;28;20140;-71
2023/03/04 09:34:33;;;;;;;12.88;2.00;;;6.70;99.90;;;;;;5042044;28;20470;-67
2023/03/04 09:36:59;;;;;;;11.45;1.52;;;6.80;99.90;;;;;;5047871;28;20041;-68
2023/03/04 09:39:25;;;;;;;14.35;2.08;;;6.80;99.90;;;;;;5031894;28;20056;-67
2023/03/04 09:41:56;;;;;;;11.05;1.33;;;6.90;99.90;;;;;;5048841;28;20048;-67
2023/03/04 09:44:44;;;;;;;8.57;1.60;;;7.00;99.90;;;;;;5045279;28;20852;-67
2023/03/04 09:47:15;;;;;;;9.73;2.58;;;7.10;99.90;;;;;;5045653;28;20130;-67
2023/03/04 09:49:44;;;;;;;11.88;1.70;;;7.20;99.90;;;;;;5048376;28;20043;-67
2023/03/04 09:52:22;;;;;;;14.45;2.03;;;7.10;99.90;;;;;;5048065;28;20080;-67
2023/03/04 09:55:15;;;;;;;8.13;1.80;;;7.20;99.90;;;;;;5047889;28;20124;-68
2023/03/04 09:58:31;;;;;;;14.32;2.15;;;7.10;99.90;;;;;;5048412;28;20044;-67
2023/03/04 10:01:16;;;;;;;13.45;2.08;;;7.00;99.90;;;;;;5047499;28;20045;-67
2023/03/04 10:03:49;;;;;;;15.35;2.03;;;7.00;99.90;;;;;;5050093;28;20044;-68
2023/03/04 10:06:20;;;;;;;15.27;2.80;;;6.90;99.90;;;;;;5050403;28;20036;-68
2023/03/04 10:08:58;;;;;;;15.82;2.20;;;6.90;99.90;;;;;;5051270;28;20441;-68
2023/03/04 10:12:00;;;;;;;15.85;2.08;;;6.90;99.90;;;;;;5050503;28;20071;-69
2023/03/04 10:14:41;;;;;;;15.13;2.90;;;6.90;99.90;;;;;;5045764;28;20036;-67
2023/03/04 10:17:11;;;;;;;13.13;1.85;;;7.00;99.90;;;;;;5048434;28;20173;-67
2023/03/04 10:19:58;;;;;;;15.57;2.10;;;7.10;99.90;;;;;;5047785;28;20451;-69
2023/03/04 10:22:56;;;;;;;15.98;1.80;;;7.20;99.90;;;;;;5050293;28;20085;-68
2023/03/04 10:25:24;;;;;;;11.40;2.00;;;7.20;99.90;;;;;;5064773;28;20082;-69
2023/03/04 10:28:02;;;;;;;14.95;2.22;;;7.20;99.90;;;;;;5046842;28;20057;-69
2023/03/04 10:30:52;;;;;;;13.15;2.63;;;7.20;99.90;;;;;;5031622;28;20037;-68
2023/03/04 10:33:24;;;;;;;15.45;2.53;;;7.20;99.90;;;;;;5049420;28;20094;-69
2023/03/04 10:36:12;;;;;;;15.85;3.90;;;7.10;99.90;;;;;;5043249;28;20128;-69
2023/03/04 10:38:40;;;;;;;17.35;2.97;;;7.10;99.90;;;;;;5067094;28;20041;-69
2023/03/04 10:41:13;;;;;;;19.70;2.60;;;7.10;99.90;;;;;;5051494;28;20033;-70
2023/03/04 10:43:41;;;;;;;15.48;2.60;;;7.00;99.90;;;;;;5051613;28;20080;-70
2023/03/04 10:46:11;;;;;;;14.98;2.00;;;6.90;99.90;;;;;;5051756;28;20535;-68
2023/03/04 10:48:41;;;;;;;15.98;3.05;;;6.90;99.90;;;;;;5035330;28;20491;-68
2023/03/04 10:51:19;;;;;;;12.43;2.20;;;6.90;99.90;;;;;;5036015;28;20492;-68
2023/03/04 10:53:46;;;;;;;17.25;2.55;;;6.90;99.90;;;;;;5045656;28;20097;-70
2023/03/04 10:56:38;;;;;;;12.00;1.92;;;7.00;99.90;;;;;;5033119;28;20044;-67
2023/03/04 10:59:41;;;;;;;18.60;2.85;;;7.10;99.90;;;;;;5033728;28;20033;-68
2023/03/04 11:02:34;;;;;;;19.67;2.35;;;7.30;99.90;;;;;;5033538;28;20099;-68
2023/03/04 11:05:18;;;;;;;;;;;7.40;99.90;;;;;;5027486;28;20128;-67
2023/03/04 11:07:53;;;;;;;10.13;1.50;;;7.40;99.90;;;;;;5015319;28;20427;-68
2023/03/04 11:10:21;;;;;;;10.05;1.80;;;7.40;99.90;;;;;;5051723;28;20564;-67
2023/03/04 11:12:50;;;;;;;10.25;1.83;;;7.30;99.90;;;;;;5046899;28;20136;-67
2023/03/04 11:15:26;;;;;;;14.40;2.65;;;7.30;99.90;;;;;;5032882;28;20065;-69
2023/03/04 11:18:04;;;;;;;6.32;0.90;;;7.30;99.90;;;;;;5021660;28;20053;-68
2023/03/04 11:20:40;;;;;;;11.23;1.95;;;7.40;99.90;;;;;;5032175;28;20106;-68
2023/03/04 11:23:14;;;;;;;11.55;1.42;;;7.50;99.90;;;;;;5030259;28;20053;-67
2023/03/04 11:25:48;;;;;;;7.20;1.40;;;7.70;99.90;;;;;;5031752;28;20076;-68
2023/03/04 11:28:38;;;;;;;8.05;2.03;;;7.70;99.90;;;;;;5044084;28;20102;-67
2023/03/04 11:31:12;;;;;;;6.63;1.00;;;7.80;99.90;;;;;;5026228;28;20121;-68
2023/03/04 11:33:40;;;;;;;7.82;1.83;;;7.80;99.90;;;;;;5053437;28;20068;-68
2023/03/04 11:36:29;;;;;;;10.20;1.00;;;7.80;99.90;;;;;;5048454;28;20050;-66
2023/03/04 11:38:55;;;;;;;5.13;1.35;;;7.80;99.90;;;;;;5055773;28;20049;-68
2023/03/04 11:41:32;;;;;;;4.22;0.93;;;7.70;99.90;;;;;;5059335;28;20057;-67
2023/03/04 11:44:04;;;;;;;8.18;1.20;;;7.60;99.90;;;;;;5050486;28;20080;-68
2023/03/04 11:46:52;;;;;;;7.60;1.02;;;7.50;99.90;;;;;;5048984;28;20480;-68
2023/03/04 11:49:43;;;;;;;12.10;1.25;;;7.40;99.90;;;;;;5031659;28;20060;-70
2023/03/04 11:52:21;;;;;;;7.85;1.42;;;7.40;99.90;;;;;;5050034;28;20067;-69
2023/03/04 11:54:50;;;;;;;7.63;1.10;;;7.40;99.90;;;;;;5047878;28;20381;-70
2023/03/04 11:57:43;;;;;;;10.25;1.50;;;7.50;99.90;;;;;;5050259;28;20373;-71
2023/03/04 12:00:11;;;;;;;;;;;7.60;99.90;;;;;;5050022;28;20052;-71
2023/03/04 12:03:05;;;;;;;8.40;1.08;;;7.80;99.90;;;;;;5081900;28;19917;-71
2023/03/04 12:06:01;;;;;;;13.43;1.13;;;7.90;99.90;;;;;;5050115;28;20059;-71
2023/03/04 12:09:25;;;;;;;8.65;1.38;;;7.90;99.90;;;;;;5049890;28;20075;-70
2023/03/04 12:11:53;;;;;;;8.43;1.42;;;7.90;99.90;;;;;;5029391;28;20045;-71
2023/03/04 12:14:29;;;;;;;9.40;1.70;;;8.30;99.90;;;;;;5008704;28;20128;-71
2023/03/04 12:17:29;;;;;;;10.32;1.50;;;8.80;99.90;;;;;;5029329;28;20049;-70
2023/03/04 12:20:13;;;;;;;12.85;1.70;;;9.20;99.90;;;;;;5045422;28;20041;-70
2023/03/04 12:22:53;;;;;;;10.63;2.10;;;9.10;99.90;;;;;;5012234;28;20051;-70
2023/03/04 12:25:24;;;;;;;11.23;1.67;;;9.00;99.90;;;;;;5012441;28;20037;-70
2023/03/04 12:28:04;;;;;;;15.70;2.08;;;8.60;99.90;;;;;;5011632;28;20056;-70
2023/03/04 12:30:49;;;;;;;12.43;2.17;;;8.50;99.90;;;;;;5012490;28;20088;-70
2023/03/04 12:33:17;;;;;;;10.73;2.10;;;8.50;99.90;;;;;;5012644;28;20041;-70
2023/03/04 12:36:01;;;;;;;7.47;1.75;;;8.60;99.90;;;;;;5011541;28;20045;-70
2023/03/04 12:38:36;;;;;;;9.80;2.05;;;8.70;99.90;;;;;;5012496;28;20089;-70
2023/03/04 12:41:29;;;;;;;10.95;2.20;;;8.80;99.90;;;;;;5028516;28;20184;-70
2023/03/04 12:44:09;;;;;;;12.82;1.77;;;9.00;99.90;;;;;;5048148;28;20046;-70
2023/03/04 12:46:59;;;;;;;13.82;1.90;;;9.10;99.90;;;;;;5048880;28;20033;-70
2023/03/04 12:49:33;;;;;;;12.00;1.75;;;9.00;99.90;;;;;;5048904;28;20040;-71
2023/03/04 12:52:11;;;;;;;11.65;1.77;;;8.90;99.90;;;;;;5049532;28;20107;-70
2023/03/04 12:54:44;;;;;;;14.55;2.17;;;8.70;99.90;;;;;;5049504;28;20036;-70
2023/03/04 12:57:20;;;;;;;15.10;2.33;;;8.60;99.90;;;;;;5049377;28;20032;-69
2023/03/04 12:59:54;;;;;;;9.25;1.75;;;8.30;99.90;;;;;;5047204;28;20041;-69
2023/03/04 13:02:49;;;;;;;13.82;2.28;;;8.20;99.90;;;;;;5048696;28;20029;-69
2023/03/04 13:05:45;;;;;;;12.63;2.83;;;8.00;99.90;;;;;;5031628;28;20045;-69
2023/03/04 13:08:32;;;;;;;15.07;2.90;;;7.90;99.90;;;;;;5031400;28;20053;-70